createdAt,value
2023-04-04T00:00:22.541Z,92879.00
2023-04-04T00:01:22.634Z,92881.00
2023-04-04T00:02:22.612Z,92881.00
2023-04-04T00:03:22.807Z,92877.00
2023-04-04T00:04:22.782Z,92877.00
2023-04-04T00:05:22.656Z,92875.00
2023-04-04T00:06:22.755Z,92877.00
2023-04-04T00:07:22.673Z,92877.00
2023-04-04T00:08:22.684Z,92875.00
2023-04-04T00:09:22.763Z,92873.00
2023-04-04T00:10:22.657Z,92873.00
2023-04-04T00:11:22.691Z,92873.00
2023-04-04T00:12:24.792Z,92871.00
2023-04-04T00:13:22.649Z,92869.00
2023-04-04T00:14:22.703Z,92871.00
2023-04-04T00:15:22.640Z,92869.00
2023-04-04T00:16:22.759Z,92863.00
2023-04-04T00:17:22.628Z,92871.00
2023-04-04T00:18:22.631Z,92860.00
2023-04-04T00:19:23.247Z,92860.00
2023-04-04T00:20:22.599Z,92861.00
2023-04-04T00:21:22.597Z,92860.00
2023-04-04T00:22:22.586Z,92861.00
2023-04-04T00:23:22.588Z,92861.00
2023-04-04T00:24:22.570Z,92861.00
2023-04-04T00:25:22.568Z,92863.00
2023-04-04T00:26:22.566Z,92858.00
2023-04-04T00:27:22.556Z,92858.00
2023-04-04T00:28:22.553Z,92858.00
2023-04-04T00:29:22.547Z,92856.00
2023-04-04T00:30:22.559Z,92856.00
2023-04-04T00:31:22.540Z,92852.00
2023-04-04T00:32:22.585Z,92854.00
2023-04-04T00:33:22.815Z,92850.00
2023-04-04T00:34:22.506Z,92852.00
2023-04-04T00:35:22.506Z,92852.00
2023-04-04T00:36:22.550Z,92854.00
2023-04-04T00:37:22.480Z,92854.00
2023-04-04T00:38:22.476Z,92854.00
2023-04-04T00:39:22.464Z,92858.00
2023-04-04T00:40:23.270Z,92858.00
2023-04-04T00:41:22.454Z,92858.00
2023-04-04T00:42:22.437Z,92856.00
2023-04-04T00:43:22.436Z,92854.00
2023-04-04T00:44:22.516Z,92856.00
2023-04-04T00:45:22.465Z,92854.00
2023-04-04T00:46:22.425Z,92852.00
2023-04-04T00:47:22.481Z,92852.00
2023-04-04T00:48:22.405Z,92852.00
2023-04-04T00:49:22.401Z,92850.00
2023-04-04T00:50:22.396Z,92852.00
2023-04-04T00:51:22.376Z,92850.00
2023-04-04T00:52:22.472Z,92848.00
2023-04-04T00:53:22.363Z,92850.00
2023-04-04T00:54:22.364Z,92846.00
2023-04-04T00:55:23.264Z,92846.00
2023-04-04T00:56:23.339Z,92846.00
2023-04-04T00:57:22.329Z,92850.00
2023-04-04T00:58:22.332Z,92844.00
2023-04-04T00:59:22.359Z,92846.00
2023-04-04T01:00:22.304Z,92850.00
2023-04-04T01:01:22.366Z,92846.00
2023-04-04T01:02:22.329Z,92848.00
2023-04-04T01:03:22.305Z,92846.00
2023-04-04T01:04:22.323Z,92846.00
2023-04-04T01:05:22.272Z,92846.00
2023-04-04T01:06:22.269Z,92842.00
2023-04-04T01:07:22.270Z,92844.00
2023-04-04T01:08:22.258Z,92846.00
2023-04-04T01:09:22.257Z,92850.00
2023-04-04T01:10:22.236Z,92848.00
2023-04-04T01:11:22.238Z,92848.00
2023-04-04T01:12:22.225Z,92846.00
2023-04-04T01:13:22.279Z,92846.00
2023-04-04T01:14:22.216Z,92844.00
2023-04-04T01:15:22.212Z,92846.00
2023-04-04T01:16:22.274Z,92844.00
2023-04-04T01:17:22.188Z,92846.00
2023-04-04T01:18:22.177Z,92846.00
2023-04-04T01:19:22.176Z,92846.00
2023-04-04T01:20:22.177Z,92844.00
2023-04-04T01:21:22.163Z,92846.00
2023-04-04T01:22:22.234Z,92840.00
2023-04-04T01:23:22.145Z,92838.00
2023-04-04T01:24:22.142Z,92838.00
2023-04-04T01:25:22.133Z,92838.00
2023-04-04T01:26:22.138Z,92840.00
2023-04-04T01:27:22.127Z,92842.00
2023-04-04T01:28:22.113Z,92840.00
2023-04-04T01:29:22.111Z,92840.00
2023-04-04T01:30:22.100Z,92840.00
2023-04-04T01:31:22.166Z,92842.00
2023-04-04T01:32:22.095Z,92838.00
2023-04-04T01:33:22.082Z,92842.00
2023-04-04T01:34:22.070Z,92838.00
2023-04-04T01:35:22.066Z,92840.00
2023-04-04T01:36:22.093Z,92836.00
2023-04-04T01:37:22.061Z,92836.00
2023-04-04T01:38:22.048Z,92836.00
2023-04-04T01:39:22.050Z,92834.00
2023-04-04T01:40:22.050Z,92832.00
2023-04-04T01:41:22.022Z,92832.00
2023-04-04T01:42:22.023Z,92834.00
2023-04-04T01:43:22.025Z,92834.00
2023-04-04T01:44:22.009Z,92834.00
2023-04-04T01:45:22.074Z,92834.00
2023-04-04T01:46:22.049Z,92832.00
2023-04-04T01:47:22.007Z,92834.00
2023-04-04T01:48:21.980Z,92834.00
2023-04-04T01:49:21.979Z,92834.00
2023-04-04T01:50:21.981Z,92834.00
2023-04-04T01:51:21.979Z,92834.00
2023-04-04T01:52:21.962Z,92834.00
2023-04-04T01:53:21.967Z,92832.00
2023-04-04T01:54:21.940Z,92834.00
2023-04-04T01:55:22.786Z,92836.00
2023-04-04T01:56:21.936Z,92834.00
2023-04-04T01:57:21.923Z,92830.00
2023-04-04T01:58:21.917Z,92832.00
2023-04-04T01:59:21.921Z,92832.00
2023-04-04T02:00:21.903Z,92832.00
2023-04-04T02:01:21.918Z,92832.00
2023-04-04T02:02:21.886Z,92832.00
2023-04-04T02:03:21.881Z,92819.00
2023-04-04T02:04:21.896Z,92823.00
2023-04-04T02:05:21.870Z,92821.00
2023-04-04T02:06:21.868Z,92823.00
2023-04-04T02:07:21.925Z,92821.00
2023-04-04T02:08:21.861Z,92823.00
2023-04-04T02:09:21.832Z,92821.00
2023-04-04T02:10:21.833Z,92823.00
2023-04-04T02:11:21.830Z,92821.00
2023-04-04T02:12:21.823Z,92821.00
2023-04-04T02:13:21.817Z,92817.00
2023-04-04T02:14:21.813Z,92821.00
2023-04-04T02:15:21.794Z,92821.00
2023-04-04T02:16:21.840Z,92819.00
2023-04-04T02:17:21.808Z,92815.00
2023-04-04T02:18:21.776Z,92819.00
2023-04-04T02:19:21.782Z,92813.00
2023-04-04T02:20:21.762Z,92811.00
2023-04-04T02:21:22.302Z,92811.00
2023-04-04T02:22:21.748Z,92813.00
2023-04-04T02:23:21.734Z,92811.00
2023-04-04T02:24:21.722Z,92815.00
2023-04-04T02:25:21.719Z,92815.00
2023-04-04T02:26:21.723Z,92815.00
2023-04-04T02:27:21.720Z,92815.00
2023-04-04T02:28:21.705Z,92817.00
2023-04-04T02:29:21.697Z,92817.00
2023-04-04T02:30:21.694Z,92819.00
2023-04-04T02:31:21.784Z,92817.00
2023-04-04T02:32:21.757Z,92817.00
2023-04-04T02:33:21.657Z,92819.00
2023-04-04T02:34:21.662Z,92817.00
2023-04-04T02:35:21.661Z,92817.00
2023-04-04T02:36:21.681Z,92819.00
2023-04-04T02:37:21.652Z,92819.00
2023-04-04T02:38:21.640Z,92815.00
2023-04-04T02:39:21.626Z,92815.00
2023-04-04T02:40:21.637Z,92819.00
2023-04-04T02:41:21.802Z,92819.00
2023-04-04T02:42:21.617Z,92813.00
2023-04-04T02:43:21.609Z,92817.00
2023-04-04T02:44:21.621Z,92819.00
2023-04-04T02:45:21.643Z,92815.00
2023-04-04T02:46:22.310Z,92819.00
2023-04-04T02:47:21.721Z,92817.00
2023-04-04T02:48:21.691Z,92817.00
2023-04-04T02:49:21.694Z,92823.00
2023-04-04T02:50:21.712Z,92817.00
2023-04-04T02:51:21.729Z,92817.00
2023-04-04T02:52:21.746Z,92815.00
2023-04-04T02:53:21.765Z,92817.00
2023-04-04T02:54:22.313Z,92819.00
2023-04-04T02:55:22.321Z,92817.00
2023-04-04T02:56:21.829Z,92817.00
2023-04-04T02:57:21.852Z,92817.00
2023-04-04T02:58:21.869Z,92817.00
2023-04-04T02:59:21.911Z,92817.00
2023-04-04T03:00:21.903Z,92811.00
2023-04-04T03:01:21.960Z,92813.00
2023-04-04T03:02:22.018Z,92811.00
2023-04-04T03:03:22.152Z,92815.00
2023-04-04T03:04:22.000Z,92815.00
2023-04-04T03:05:22.025Z,92815.00
2023-04-04T03:06:22.041Z,92817.00
2023-04-04T03:07:22.057Z,92817.00
2023-04-04T03:08:22.082Z,92815.00
2023-04-04T03:09:22.101Z,92817.00
2023-04-04T03:10:22.124Z,92817.00
2023-04-04T03:11:22.147Z,92815.00
2023-04-04T03:12:22.167Z,92817.00
2023-04-04T03:13:22.203Z,92815.00
2023-04-04T03:14:22.210Z,92811.00
2023-04-04T03:15:22.326Z,92815.00
2023-04-04T03:16:22.314Z,92813.00
2023-04-04T03:17:22.263Z,92815.00
2023-04-04T03:18:22.307Z,92813.00
2023-04-04T03:19:22.313Z,92813.00
2023-04-04T03:20:22.328Z,92813.00
2023-04-04T03:21:22.348Z,92811.00
2023-04-04T03:22:22.381Z,92813.00
2023-04-04T03:23:22.386Z,92811.00
2023-04-04T03:24:22.452Z,92813.00
2023-04-04T03:25:22.448Z,92811.00
2023-04-04T03:26:22.473Z,92815.00
2023-04-04T03:27:22.461Z,92813.00
2023-04-04T03:28:22.484Z,92811.00
2023-04-04T03:29:22.497Z,92817.00
2023-04-04T03:30:22.520Z,92811.00
2023-04-04T03:31:22.604Z,92811.00
2023-04-04T03:32:22.585Z,92805.00
2023-04-04T03:33:22.567Z,92809.00
2023-04-04T03:34:22.587Z,92809.00
2023-04-04T03:35:22.660Z,92807.00
2023-04-04T03:36:22.629Z,92807.00
2023-04-04T03:37:22.646Z,92807.00
2023-04-04T03:38:22.671Z,92807.00
2023-04-04T03:39:22.711Z,92805.00
2023-04-04T03:40:22.831Z,92805.00
2023-04-04T03:41:22.732Z,92807.00
2023-04-04T03:42:22.749Z,92803.00
2023-04-04T03:43:22.768Z,92801.00
2023-04-04T03:44:22.794Z,92801.00
2023-04-04T03:45:23.326Z,92803.00
2023-04-04T03:46:22.870Z,92803.00
2023-04-04T03:47:22.885Z,92803.00
2023-04-04T03:48:22.884Z,92805.00
2023-04-04T03:49:22.922Z,92805.00
2023-04-04T03:50:22.932Z,92803.00
2023-04-04T03:51:22.947Z,92805.00
2023-04-04T03:52:22.965Z,92805.00
2023-04-04T03:53:23.069Z,92803.00
2023-04-04T03:54:23.018Z,92807.00
2023-04-04T03:55:23.049Z,92805.00
2023-04-04T03:56:23.062Z,92807.00
2023-04-04T03:57:23.087Z,92811.00
2023-04-04T03:58:23.091Z,92811.00
2023-04-04T03:59:23.159Z,92813.00
2023-04-04T04:00:23.146Z,92813.00
2023-04-04T04:01:23.156Z,92813.00
2023-04-04T04:02:23.214Z,92815.00
2023-04-04T04:03:23.260Z,92817.00
2023-04-04T04:04:23.308Z,92819.00
2023-04-04T04:05:23.234Z,92821.00
2023-04-04T04:06:23.274Z,92823.00
2023-04-04T04:07:23.283Z,92823.00
2023-04-04T04:08:24.744Z,92830.00
2023-04-04T04:09:23.450Z,92832.00
2023-04-04T04:10:23.357Z,92830.00
2023-04-04T04:11:23.379Z,92823.00
2023-04-04T04:12:23.399Z,92823.00
2023-04-04T04:13:23.411Z,92823.00
2023-04-04T04:14:23.455Z,92823.00
2023-04-04T04:15:23.502Z,92821.00
2023-04-04T04:16:23.529Z,92834.00
2023-04-04T04:17:23.519Z,92823.00
2023-04-04T04:18:23.528Z,92832.00
2023-04-04T04:19:23.543Z,92832.00
2023-04-04T04:20:23.568Z,92832.00
2023-04-04T04:21:23.601Z,92832.00
2023-04-04T04:22:23.622Z,92832.00
2023-04-04T04:23:23.714Z,92832.00
2023-04-04T04:24:23.674Z,92830.00
2023-04-04T04:25:23.705Z,92832.00
2023-04-04T04:26:23.732Z,92834.00
2023-04-04T04:27:23.741Z,92834.00
2023-04-04T04:28:23.764Z,92832.00
2023-04-04T04:29:24.760Z,92832.00
2023-04-04T04:30:23.830Z,92836.00
2023-04-04T04:31:23.846Z,92832.00
2023-04-04T04:32:23.747Z,92836.00
2023-04-04T04:33:23.738Z,92832.00
2023-04-04T04:34:23.736Z,92836.00
2023-04-04T04:35:23.720Z,92834.00
2023-04-04T04:36:23.739Z,92834.00
2023-04-04T04:37:23.708Z,92836.00
2023-04-04T04:38:23.700Z,92836.00
2023-04-04T04:39:23.703Z,92834.00
2023-04-04T04:40:23.691Z,92836.00
2023-04-04T04:41:23.695Z,92836.00
2023-04-04T04:42:23.668Z,92836.00
2023-04-04T04:43:23.665Z,92834.00
2023-04-04T04:44:23.666Z,92832.00
2023-04-04T04:45:23.659Z,92838.00
2023-04-04T04:46:23.690Z,92836.00
2023-04-04T04:47:23.702Z,92836.00
2023-04-04T04:48:23.670Z,92840.00
2023-04-04T04:49:23.704Z,92836.00
2023-04-04T04:50:23.713Z,92840.00
2023-04-04T04:51:23.742Z,92840.00
2023-04-04T04:52:23.773Z,92840.00
2023-04-04T04:53:23.792Z,92840.00
2023-04-04T04:54:23.818Z,92844.00
2023-04-04T04:55:23.951Z,92844.00
2023-04-04T04:56:23.886Z,92844.00
2023-04-04T04:57:23.911Z,92846.00
2023-04-04T04:58:24.170Z,92846.00
2023-04-04T04:59:24.110Z,92846.00
2023-04-04T05:00:23.984Z,92846.00
2023-04-04T05:01:24.057Z,92848.00
2023-04-04T05:02:24.930Z,92848.00
2023-04-04T05:03:24.927Z,92848.00
2023-04-04T05:04:24.070Z,92848.00
2023-04-04T05:05:24.362Z,92850.00
2023-04-04T05:06:24.102Z,92854.00
2023-04-04T05:07:24.136Z,92856.00
2023-04-04T05:08:24.213Z,92854.00
2023-04-04T05:09:24.179Z,92856.00
2023-04-04T05:10:24.211Z,92856.00
2023-04-04T05:11:24.225Z,92854.00
2023-04-04T05:12:24.262Z,92854.00
2023-04-04T05:13:24.274Z,92856.00
2023-04-04T05:14:24.350Z,92856.00
2023-04-04T05:15:24.329Z,92856.00
2023-04-04T05:16:24.414Z,92858.00
2023-04-04T05:17:24.486Z,92858.00
2023-04-04T05:18:24.482Z,92861.00
2023-04-04T05:19:24.439Z,92860.00
2023-04-04T05:20:24.466Z,92858.00
2023-04-04T05:21:24.480Z,92861.00
2023-04-04T05:22:24.503Z,92863.00
2023-04-04T05:23:24.556Z,92865.00
2023-04-04T05:24:24.560Z,92865.00
2023-04-04T05:25:24.588Z,92865.00
2023-04-04T05:26:24.607Z,92865.00
2023-04-04T05:27:24.703Z,92867.00
2023-04-04T05:28:24.661Z,92869.00
2023-04-04T05:29:24.683Z,92867.00
2023-04-04T05:30:24.718Z,92871.00
2023-04-04T05:31:24.769Z,92869.00
2023-04-04T05:32:24.872Z,92871.00
2023-04-04T05:33:24.799Z,92869.00
2023-04-04T05:34:24.804Z,92867.00
2023-04-04T05:35:24.905Z,92867.00
2023-04-04T05:36:24.896Z,92867.00
2023-04-04T05:37:24.887Z,92873.00
2023-04-04T05:38:24.907Z,92867.00
2023-04-04T05:39:24.923Z,92871.00
2023-04-04T05:40:25.038Z,92871.00
2023-04-04T05:41:24.973Z,92873.00
2023-04-04T05:42:25.001Z,92873.00
2023-04-04T05:43:25.026Z,92873.00
2023-04-04T05:44:25.129Z,92875.00
2023-04-04T05:45:25.062Z,92875.00
2023-04-04T05:46:25.144Z,92875.00
2023-04-04T05:47:25.131Z,92879.00
2023-04-04T05:48:25.132Z,92879.00
2023-04-04T05:49:25.160Z,92879.00
2023-04-04T05:50:25.166Z,92877.00
2023-04-04T05:51:25.198Z,92875.00
2023-04-04T05:52:25.213Z,92881.00
2023-04-04T05:53:25.239Z,92881.00
2023-04-04T05:54:25.333Z,92879.00
2023-04-04T05:55:25.269Z,92881.00
2023-04-04T05:56:25.283Z,92883.00
2023-04-04T05:57:25.458Z,92883.00
2023-04-04T05:58:25.321Z,92885.00
2023-04-04T05:59:25.383Z,92885.00
2023-04-04T06:00:25.361Z,92887.00
2023-04-04T06:01:25.383Z,92887.00
2023-04-04T06:02:25.477Z,92887.00
2023-04-04T06:03:25.470Z,92887.00
2023-04-04T06:04:25.451Z,92887.00
2023-04-04T06:05:25.466Z,92887.00
2023-04-04T06:06:25.541Z,92889.00
2023-04-04T06:07:25.493Z,92889.00
2023-04-04T06:08:25.499Z,92889.00
2023-04-04T06:09:25.513Z,92889.00
2023-04-04T06:10:25.534Z,92891.00
2023-04-04T06:11:25.549Z,92891.00
2023-04-04T06:12:25.571Z,92893.00
2023-04-04T06:13:25.574Z,92889.00
2023-04-04T06:14:25.618Z,92889.00
2023-04-04T06:15:25.608Z,92889.00
2023-04-04T06:16:25.635Z,92889.00
2023-04-04T06:17:25.622Z,92891.00
2023-04-04T06:18:25.651Z,92891.00
2023-04-04T06:19:25.689Z,92889.00
2023-04-04T06:20:25.691Z,92889.00
2023-04-04T06:21:25.708Z,92885.00
2023-04-04T06:22:25.723Z,92885.00
2023-04-04T06:23:25.742Z,92885.00
2023-04-04T06:24:25.756Z,92885.00
2023-04-04T06:25:25.785Z,92887.00
2023-04-04T06:26:25.798Z,92887.00
2023-04-04T06:27:25.821Z,92889.00
2023-04-04T06:28:25.820Z,92887.00
2023-04-04T06:29:25.836Z,92887.00
2023-04-04T06:30:25.853Z,92887.00
2023-04-04T06:31:25.884Z,92885.00
2023-04-04T06:32:25.930Z,92889.00
2023-04-04T06:33:25.883Z,92887.00
2023-04-04T06:34:25.889Z,92887.00
2023-04-04T06:35:25.911Z,92887.00
2023-04-04T06:36:25.919Z,92887.00
2023-04-04T06:37:25.959Z,92887.00
2023-04-04T06:38:25.937Z,92883.00
2023-04-04T06:39:25.958Z,92887.00
2023-04-04T06:40:25.990Z,92885.00
2023-04-04T06:41:25.975Z,92885.00
2023-04-04T06:42:25.998Z,92883.00
2023-04-04T06:43:26.026Z,92885.00
2023-04-04T06:44:26.040Z,92885.00
2023-04-04T06:45:26.900Z,92885.00
2023-04-04T06:46:26.048Z,92883.00
2023-04-04T06:47:26.142Z,92883.00
2023-04-04T06:48:26.084Z,92883.00
2023-04-04T06:49:26.104Z,92883.00
2023-04-04T06:50:26.100Z,92887.00
2023-04-04T06:51:26.117Z,92885.00
2023-04-04T06:52:26.135Z,92881.00
2023-04-04T06:53:26.132Z,92877.00
2023-04-04T06:54:26.158Z,92883.00
2023-04-04T06:55:26.164Z,92879.00
2023-04-04T06:56:26.174Z,92883.00
2023-04-04T06:57:26.173Z,92883.00
2023-04-04T06:58:26.176Z,92879.00
2023-04-04T06:59:26.209Z,92879.00
2023-04-04T07:00:26.184Z,92879.00
2023-04-04T07:01:27.029Z,92879.00
2023-04-04T07:02:26.267Z,92879.00
2023-04-04T07:03:26.281Z,92881.00
2023-04-04T07:04:26.192Z,92881.00
2023-04-04T07:05:26.189Z,92881.00
2023-04-04T07:06:26.197Z,92879.00
2023-04-04T07:07:26.198Z,92881.00
2023-04-04T07:08:27.409Z,92879.00
2023-04-04T07:09:29.507Z,92879.00
2023-04-04T07:10:26.194Z,92879.00
2023-04-04T07:11:26.190Z,92883.00
2023-04-04T07:12:26.184Z,92881.00
2023-04-04T07:13:26.181Z,92881.00
2023-04-04T07:14:26.165Z,92883.00
2023-04-04T07:15:26.166Z,92883.00
2023-04-04T07:16:26.212Z,92885.00
2023-04-04T07:17:26.199Z,92885.00
2023-04-04T07:18:26.144Z,92885.00
2023-04-04T07:19:26.148Z,92883.00
2023-04-04T07:20:26.147Z,92881.00
2023-04-04T07:21:26.132Z,92883.00
2023-04-04T07:22:26.130Z,92885.00
2023-04-04T07:23:26.105Z,92883.00
2023-04-04T07:24:26.110Z,92881.00
2023-04-04T07:25:26.193Z,92887.00
2023-04-04T07:26:26.108Z,92885.00
2023-04-04T07:27:26.106Z,92885.00
2023-04-04T07:28:26.108Z,92887.00
2023-04-04T07:29:26.084Z,92885.00
2023-04-04T07:30:26.079Z,92885.00
2023-04-04T07:31:26.138Z,92887.00
2023-04-04T07:32:26.176Z,92883.00
2023-04-04T07:33:26.072Z,92881.00
2023-04-04T07:34:26.051Z,92881.00
2023-04-04T07:35:26.046Z,92881.00
2023-04-04T07:36:26.040Z,92883.00
2023-04-04T07:37:26.053Z,92879.00
2023-04-04T07:38:26.019Z,92877.00
2023-04-04T07:39:26.023Z,92879.00
2023-04-04T07:40:26.005Z,92879.00
2023-04-04T07:41:26.002Z,92879.00
2023-04-04T07:42:25.997Z,92875.00
2023-04-04T07:43:25.991Z,92873.00
2023-04-04T07:44:25.975Z,92873.00
2023-04-04T07:45:25.972Z,92877.00
2023-04-04T07:46:25.997Z,92877.00
2023-04-04T07:47:25.994Z,92869.00
2023-04-04T07:48:25.950Z,92873.00
2023-04-04T07:49:25.967Z,92875.00
2023-04-04T07:50:25.941Z,92879.00
2023-04-04T07:51:25.923Z,92879.00
2023-04-04T07:52:25.914Z,92877.00
2023-04-04T07:53:25.919Z,92877.00
2023-04-04T07:54:25.912Z,92877.00
2023-04-04T07:55:26.110Z,92877.00
2023-04-04T07:56:25.893Z,92879.00
2023-04-04T07:57:25.884Z,92881.00
2023-04-04T07:58:25.883Z,92879.00
2023-04-04T07:59:25.960Z,92877.00
2023-04-04T08:00:25.898Z,92875.00
2023-04-04T08:01:25.860Z,92883.00
2023-04-04T08:02:25.944Z,92877.00
2023-04-04T08:03:26.144Z,92875.00
2023-04-04T08:04:25.913Z,92877.00
2023-04-04T08:05:25.906Z,92871.00
2023-04-04T08:06:25.867Z,92871.00
2023-04-04T08:07:25.864Z,92871.00
2023-04-04T08:08:25.898Z,92873.00
2023-04-04T08:09:25.969Z,92869.00
2023-04-04T08:10:26.016Z,92873.00
2023-04-04T08:11:26.104Z,92871.00
2023-04-04T08:12:26.127Z,92871.00
2023-04-04T08:13:26.162Z,92869.00
2023-04-04T08:14:26.194Z,92867.00
2023-04-04T08:15:26.216Z,92871.00
2023-04-04T08:16:26.363Z,92871.00
2023-04-04T08:17:26.333Z,92871.00
2023-04-04T08:18:26.290Z,92867.00
2023-04-04T08:19:26.285Z,92871.00
2023-04-04T08:20:26.284Z,92871.00
2023-04-04T08:21:26.294Z,92863.00
2023-04-04T08:22:26.345Z,92861.00
2023-04-04T08:23:26.397Z,92863.00
2023-04-04T08:24:28.147Z,92856.00
2023-04-04T08:25:26.412Z,92860.00
2023-04-04T08:26:26.480Z,92858.00
2023-04-04T08:27:26.583Z,92856.00
2023-04-04T08:28:26.555Z,92856.00
2023-04-04T08:29:26.538Z,92854.00
2023-04-04T08:30:26.580Z,92852.00
2023-04-04T08:31:26.637Z,92852.00
2023-04-04T08:32:26.638Z,92856.00
2023-04-04T08:33:37.338Z,92856.00
2023-04-04T08:34:27.651Z,92854.00
2023-04-04T08:35:26.653Z,92854.00
2023-04-04T08:36:26.633Z,92850.00
2023-04-04T08:37:26.622Z,92846.00
2023-04-04T08:38:26.638Z,92848.00
2023-04-04T08:39:26.613Z,92846.00
2023-04-04T08:40:26.603Z,92844.00
2023-04-04T08:41:26.593Z,92840.00
2023-04-04T08:42:26.597Z,92838.00
2023-04-04T08:43:26.575Z,92838.00
2023-04-04T08:44:26.583Z,92838.00
2023-04-04T08:45:26.561Z,92834.00
2023-04-04T08:46:26.573Z,92836.00
2023-04-04T08:47:26.641Z,92836.00
2023-04-04T08:48:26.552Z,92836.00
2023-04-04T08:49:26.548Z,92834.00
2023-04-04T08:50:26.562Z,92836.00
2023-04-04T08:51:26.531Z,92836.00
2023-04-04T08:52:26.532Z,92836.00
2023-04-04T08:53:26.952Z,92834.00
2023-04-04T08:54:26.567Z,92834.00
2023-04-04T08:55:27.487Z,92838.00
2023-04-04T08:56:26.511Z,92836.00
2023-04-04T08:57:26.518Z,92832.00
2023-04-04T08:58:26.563Z,92832.00
2023-04-04T08:59:26.696Z,92832.00
2023-04-04T09:00:26.633Z,92834.00
2023-04-04T09:01:26.795Z,92832.00
2023-04-04T09:02:26.754Z,92830.00
2023-04-04T09:03:26.716Z,92830.00
2023-04-04T09:04:26.685Z,92823.00
2023-04-04T09:05:26.781Z,92823.00
2023-04-04T09:06:26.772Z,92823.00
2023-04-04T09:07:26.827Z,92821.00
2023-04-04T09:08:26.899Z,92823.00
2023-04-04T09:09:26.942Z,92821.00
2023-04-04T09:10:26.993Z,92823.00
2023-04-04T09:11:27.027Z,92821.00
2023-04-04T09:12:27.038Z,92823.00
2023-04-04T09:13:27.043Z,92821.00
2023-04-04T09:14:27.044Z,92817.00
2023-04-04T09:15:27.112Z,92817.00
2023-04-04T09:16:27.963Z,92813.00
2023-04-04T09:17:27.069Z,92815.00
2023-04-04T09:18:27.055Z,92813.00
2023-04-04T09:19:27.056Z,92811.00
2023-04-04T09:20:27.056Z,92811.00
2023-04-04T09:21:27.076Z,92809.00
2023-04-04T09:22:27.159Z,92805.00
2023-04-04T09:23:27.090Z,92811.00
2023-04-04T09:24:27.131Z,92809.00
2023-04-04T09:25:27.119Z,92807.00
2023-04-04T09:26:27.124Z,92805.00
2023-04-04T09:27:27.194Z,92807.00
2023-04-04T09:28:27.158Z,92803.00
2023-04-04T09:29:27.208Z,92801.00
2023-04-04T09:30:27.182Z,92801.00
2023-04-04T09:31:27.261Z,92801.00
2023-04-04T09:32:27.278Z,92799.00
2023-04-04T09:33:27.248Z,92799.00
2023-04-04T09:34:27.241Z,92799.00
2023-04-04T09:35:27.286Z,92799.00
2023-04-04T09:36:27.272Z,92799.00
2023-04-04T09:37:27.266Z,92793.00
2023-04-04T09:38:27.372Z,92797.00
2023-04-04T09:39:27.273Z,92793.00
2023-04-04T09:40:27.331Z,92793.00
2023-04-04T09:41:27.302Z,92795.00
2023-04-04T09:42:27.294Z,92791.00
2023-04-04T09:43:27.500Z,92789.00
2023-04-04T09:44:27.301Z,92781.00
2023-04-04T09:45:43.461Z,92785.00
2023-04-04T09:46:28.332Z,92785.00
2023-04-04T09:47:31.240Z,92785.00
2023-04-04T09:48:27.306Z,92787.00
2023-04-04T09:49:27.288Z,92783.00
2023-04-04T09:50:27.278Z,92785.00
2023-04-04T09:51:27.267Z,92783.00
2023-04-04T09:52:27.268Z,92787.00
2023-04-04T09:53:27.252Z,92779.00
2023-04-04T09:54:30.105Z,92781.00
2023-04-04T09:55:27.249Z,92777.00
2023-04-04T09:56:27.314Z,92779.00
2023-04-04T09:57:27.222Z,92777.00
2023-04-04T09:58:27.220Z,92774.00
2023-04-04T09:59:27.239Z,92774.00
2023-04-04T10:00:27.208Z,92768.00
2023-04-04T10:01:27.260Z,92774.00
2023-04-04T10:02:27.219Z,92776.00
2023-04-04T10:03:27.185Z,92770.00
2023-04-04T10:04:27.386Z,92772.00
2023-04-04T10:05:27.167Z,92774.00
2023-04-04T10:06:27.177Z,92772.00
2023-04-04T10:07:27.164Z,92774.00
2023-04-04T10:08:27.185Z,92770.00
2023-04-04T10:09:27.148Z,92766.00
2023-04-04T10:10:27.137Z,92768.00
2023-04-04T10:11:27.137Z,92766.00
2023-04-04T10:12:27.187Z,92762.00
2023-04-04T10:13:27.114Z,92764.00
2023-04-04T10:14:27.110Z,92764.00
2023-04-04T10:15:27.097Z,92762.00
2023-04-04T10:16:27.155Z,92762.00
2023-04-04T10:17:27.122Z,92756.00
2023-04-04T10:18:27.078Z,92754.00
2023-04-04T10:19:27.073Z,92756.00
2023-04-04T10:20:27.078Z,92752.00
2023-04-04T10:21:27.136Z,92752.00
2023-04-04T10:22:27.076Z,92748.00
2023-04-04T10:23:27.047Z,92746.00
2023-04-04T10:24:27.042Z,92744.00
2023-04-04T10:25:27.037Z,92740.00
2023-04-04T10:26:27.028Z,92742.00
2023-04-04T10:27:27.026Z,92738.00
2023-04-04T10:28:27.014Z,92738.00
2023-04-04T10:29:27.084Z,92732.00
2023-04-04T10:30:27.005Z,92730.00
2023-04-04T10:31:27.028Z,92732.00
2023-04-04T10:32:27.028Z,92728.00
2023-04-04T10:33:26.967Z,92728.00
2023-04-04T10:34:26.977Z,92730.00
2023-04-04T10:35:27.004Z,92728.00
2023-04-04T10:36:26.961Z,92728.00
2023-04-04T10:37:26.955Z,92730.00
2023-04-04T10:38:26.951Z,92728.00
2023-04-04T10:39:26.928Z,92730.00
2023-04-04T10:40:26.946Z,92723.00
2023-04-04T10:41:26.977Z,92726.00
2023-04-04T10:42:27.036Z,92721.00
2023-04-04T10:43:27.073Z,92719.00
2023-04-04T10:44:27.103Z,92719.00
2023-04-04T10:45:27.984Z,92719.00
2023-04-04T10:46:27.122Z,92715.00
2023-04-04T10:47:27.129Z,92713.00
2023-04-04T10:48:27.101Z,92715.00
2023-04-04T10:49:27.096Z,92713.00
2023-04-04T10:50:27.117Z,92707.00
2023-04-04T10:51:27.162Z,92705.00
2023-04-04T10:52:27.150Z,92709.00
2023-04-04T10:53:27.117Z,92705.00
2023-04-04T10:54:27.131Z,92707.00
2023-04-04T10:55:27.121Z,92707.00
2023-04-04T10:56:27.228Z,92705.00
2023-04-04T10:57:27.240Z,92699.00
2023-04-04T10:58:27.236Z,92701.00
2023-04-04T10:59:27.279Z,92701.00
2023-04-04T11:00:27.265Z,92697.00
2023-04-04T11:01:27.278Z,92693.00
2023-04-04T11:02:27.414Z,92695.00
2023-04-04T11:03:27.352Z,92689.00
2023-04-04T11:04:27.392Z,92689.00
2023-04-04T11:05:27.363Z,92691.00
2023-04-04T11:06:27.425Z,92689.00
2023-04-04T11:07:27.364Z,92683.00
2023-04-04T11:08:27.364Z,92681.00
2023-04-04T11:09:27.374Z,92679.00
2023-04-04T11:10:27.390Z,92679.00
2023-04-04T11:11:27.389Z,92683.00
2023-04-04T11:12:27.418Z,92674.00
2023-04-04T11:13:27.418Z,92679.00
2023-04-04T11:14:27.424Z,92674.00
2023-04-04T11:15:27.436Z,92674.00
2023-04-04T11:16:27.493Z,92674.00
2023-04-04T11:17:27.530Z,92672.00
2023-04-04T11:18:33.737Z,92677.00
2023-04-04T11:19:28.998Z,92666.00
2023-04-04T11:20:27.488Z,92674.00
2023-04-04T11:21:27.486Z,92668.00
2023-04-04T11:22:27.465Z,92664.00
2023-04-04T11:23:27.480Z,92668.00
2023-04-04T11:24:27.458Z,92666.00
2023-04-04T11:25:27.507Z,92666.00
2023-04-04T11:26:27.439Z,92662.00
2023-04-04T11:27:27.464Z,92666.00
2023-04-04T11:28:27.441Z,92664.00
2023-04-04T11:29:27.485Z,92656.00
2023-04-04T11:30:27.414Z,92658.00
2023-04-04T11:31:27.448Z,92658.00
2023-04-04T11:32:27.419Z,92656.00
2023-04-04T11:33:27.518Z,92650.00
2023-04-04T11:34:27.478Z,92652.00
2023-04-04T11:35:27.526Z,92654.00
2023-04-04T11:36:27.597Z,92652.00
2023-04-04T11:37:27.616Z,92648.00
2023-04-04T11:38:27.656Z,92652.00
2023-04-04T11:39:27.685Z,92652.00
2023-04-04T11:40:27.730Z,92654.00
2023-04-04T11:41:27.776Z,92652.00
2023-04-04T11:42:27.850Z,92652.00
2023-04-04T11:43:27.860Z,92656.00
2023-04-04T11:44:27.903Z,92658.00